createdAt,value
2023-02-26T00:00:20.647Z,19.6
2023-02-26T00:06:13.338Z,19.3
2023-02-26T00:11:53.497Z,19
2023-02-26T00:17:48.028Z,18.8
2023-02-26T00:23:40.388Z,21.4
2023-02-26T00:29:33.734Z,21
2023-02-26T00:35:27.171Z,19.9
2023-02-26T00:41:20.689Z,19.6
2023-02-26T00:47:14.047Z,19.3
2023-02-26T00:53:06.537Z,19
2023-02-26T00:58:58.345Z,19.1
2023-02-26T01:04:51.383Z,22.3
2023-02-26T01:10:43.887Z,20.3
2023-02-26T01:16:36.565Z,19.7
2023-02-26T01:22:30.963Z,19.3
2023-02-26T01:28:24.065Z,19.1
2023-02-26T01:34:17.796Z,18.8
2023-02-26T01:40:11.370Z,22.4
2023-02-26T01:46:04.365Z,20.5
2023-02-26T01:51:57.668Z,19.7
2023-02-26T01:57:51.668Z,19.4
2023-02-26T02:03:44.268Z,19.1
2023-02-26T02:09:36.734Z,18.9
2023-02-26T02:15:14.241Z,22.6
2023-02-26T02:20:51.425Z,20.4
2023-02-26T02:26:44.735Z,19.6
2023-02-26T02:32:39.630Z,19.3
2023-02-26T02:38:32.651Z,19
2023-02-26T02:44:25.825Z,20
2023-02-26T02:50:21.240Z,22.1
2023-02-26T02:56:13.442Z,20.1
2023-02-26T03:02:06.441Z,19.6
2023-02-26T03:08:01.027Z,19.3
2023-02-26T03:13:53.816Z,18.9
2023-02-26T03:19:47.574Z,21.4
2023-02-26T03:25:40.943Z,21.3
2023-02-26T03:31:33.752Z,19.8
2023-02-26T03:37:26.687Z,19.4
2023-02-26T03:43:04.200Z,19.1
2023-02-26T03:48:56.973Z,18.9
2023-02-26T03:54:34.774Z,22.5
2023-02-26T04:00:27.693Z,20.5
2023-02-26T04:06:05.661Z,19.6
2023-02-26T04:11:45.707Z,19.3
2023-02-26T04:17:23.391Z,19
2023-02-26T04:23:16.574Z,20
2023-02-26T04:29:08.974Z,22.2
2023-02-26T04:35:02.769Z,20
2023-02-26T04:40:39.726Z,19.4
2023-02-26T04:46:33.020Z,19.1
2023-02-26T04:52:11.197Z,18.9
2023-02-26T04:57:49.874Z,21.6
2023-02-26T05:03:11.195Z,21.2
2023-02-26T05:09:04.623Z,19.9
2023-02-26T05:14:57.741Z,19.4
2023-02-26T05:20:51.253Z,19.1
2023-02-26T05:26:46.468Z,19
2023-02-26T05:32:40.306Z,22.5
2023-02-26T05:38:33.085Z,20.4
2023-02-26T05:44:25.860Z,19.6
2023-02-26T05:50:19.445Z,19.2
2023-02-26T05:55:56.612Z,18.9
2023-02-26T06:01:49.156Z,21.7
2023-02-26T06:07:41.878Z,21.2
2023-02-26T06:13:33.413Z,19.8
2023-02-26T06:19:27.281Z,19.4
2023-02-26T06:25:19.040Z,19.1
2023-02-26T06:31:12.700Z,20.5
2023-02-26T06:36:50.630Z,22
2023-02-26T06:42:29.160Z,20.1
2023-02-26T06:48:21.656Z,19.5
2023-02-26T06:54:14.313Z,19.2
2023-02-26T07:00:06.942Z,18.9
2023-02-26T07:06:14.095Z,18.6
2023-02-26T07:12:14.856Z,21.7
2023-02-26T07:18:08.051Z,20.2
2023-02-26T07:24:01.755Z,19.8
2023-02-26T07:29:56.998Z,19.4
2023-02-26T07:35:50.243Z,19.2
2023-02-26T07:41:42.210Z,18.9
2023-02-26T07:53:12.277Z,21.3
2023-02-26T07:59:04.869Z,20.6
2023-02-26T08:04:58.292Z,19.8
2023-02-26T08:10:50.545Z,19.5
2023-02-26T08:16:44.088Z,19.2
2023-02-26T08:22:22.874Z,18.9
2023-02-26T08:28:00.019Z,18.8
2023-02-26T08:33:53.386Z,20.3
2023-02-26T08:45:10.860Z,20.1
2023-02-26T08:51:14.970Z,19.7
2023-02-26T08:57:07.845Z,19.4
2023-02-26T09:02:59.979Z,19.1
2023-02-26T09:08:56.470Z,18.9
2023-02-26T09:20:27.456Z,18.4
2023-02-26T09:26:20.617Z,18.3
2023-02-26T09:32:14.219Z,18.2
2023-02-26T09:37:51.356Z,18.1
2023-02-26T09:43:45.790Z,17.9
2023-02-26T09:49:38.805Z,17.8
2023-02-26T09:55:14.879Z,17.6
2023-02-26T10:01:07.060Z,17.5
2023-02-26T10:07:00.991Z,17.3
2023-02-26T10:12:53.176Z,17.2
2023-02-26T10:18:13.360Z,17.3
2023-02-26T10:24:07.612Z,17.2
2023-02-26T10:30:00.310Z,17.1
2023-02-26T10:41:19.653Z,16.9
2023-02-26T10:46:56.797Z,16.9
2023-02-26T10:52:18.758Z,16.8
2023-02-26T10:57:56.330Z,16.7
2023-02-26T11:03:33.434Z,16.7
2023-02-26T11:09:16.161Z,16.6
2023-02-26T11:15:11.856Z,16.6
2023-02-26T11:21:04.277Z,16.6
2023-02-26T11:26:58.901Z,16.5
2023-02-26T11:32:54.944Z,16.4
2023-02-26T11:38:51.380Z,16.4
2023-02-26T11:44:28.203Z,16.3
2023-02-26T11:50:06.265Z,16.3
2023-02-26T11:55:27.787Z,16.3
2023-02-26T12:01:06.815Z,16.3
2023-02-26T12:07:00.495Z,16.2
2023-02-26T12:12:54.159Z,16.2
2023-02-26T12:18:48.535Z,16.2
2023-02-26T12:24:27.196Z,16.1
2023-02-26T12:30:04.112Z,16.1
2023-02-26T12:35:57.438Z,16.1
2023-02-26T12:42:07.926Z,16.1
2023-02-26T12:47:45.326Z,16
2023-02-26T12:53:38.350Z,16
2023-02-26T12:59:31.789Z,16
2023-02-26T13:05:35.150Z,16
2023-02-26T13:11:27.242Z,16
2023-02-26T13:17:20.834Z,15.9
2023-02-26T13:23:13.065Z,15.9
2023-02-26T13:29:04.482Z,15.9
2023-02-26T13:35:03.419Z,15.9
2023-02-26T13:40:55.997Z,15.9
2023-02-26T13:46:33.562Z,15.9
2023-02-26T13:51:39.884Z,15.9
2023-02-26T13:57:01.465Z,15.9
2023-02-26T14:02:40.084Z,15.9
2023-02-26T14:08:17.601Z,15.9
2023-02-26T14:13:56.280Z,15.9
2023-02-26T14:19:49.054Z,15.9
2023-02-26T14:25:42.313Z,15.9
2023-02-26T14:31:36.016Z,15.9
2023-02-26T14:37:29.339Z,15.8
2023-02-26T14:43:26.112Z,15.8
2023-02-26T14:49:18.609Z,15.8
2023-02-26T14:55:11.317Z,15.8
2023-02-26T15:00:49.289Z,15.8
2023-02-26T15:06:56.181Z,15.8
2023-02-26T15:12:51.739Z,15.8
2023-02-26T15:18:45.121Z,15.8
2023-02-26T15:24:38.447Z,15.8
2023-02-26T15:30:32.074Z,15.8
2023-02-26T15:36:26.748Z,15.8
2023-02-26T15:42:20.138Z,15.8
2023-02-26T15:48:21.264Z,15.8
2023-02-26T15:54:14.519Z,15.8
2023-02-26T16:00:07.295Z,15.8
2023-02-26T16:05:45.040Z,15.8
2023-02-26T16:11:37.894Z,15.8
2023-02-26T16:17:30.845Z,15.8
2023-02-26T16:23:24.348Z,15.8
2023-02-26T16:29:17.690Z,15.8
2023-02-26T16:34:56.396Z,15.8
2023-02-26T16:40:34.673Z,15.8
2023-02-26T16:46:13.038Z,15.8
2023-02-26T16:51:36.772Z,15.7
2023-02-26T16:56:58.973Z,15.7
2023-02-26T17:02:39.820Z,15.7
2023-02-26T17:08:34.126Z,15.7
2023-02-26T17:14:30.166Z,15.7
2023-02-26T17:20:25.123Z,15.7
2023-02-26T17:26:18.291Z,15.7
2023-02-26T17:32:12.363Z,15.7
2023-02-26T17:38:06.134Z,15.7
2023-02-26T17:43:58.717Z,15.7
2023-02-26T17:49:52.173Z,15.7
2023-02-26T17:55:45.968Z,15.6
2023-02-26T18:01:39.700Z,15.7
2023-02-26T18:07:34.018Z,15.7
2023-02-26T18:13:28.082Z,15.6
2023-02-26T18:19:20.979Z,15.7
2023-02-26T18:25:13.801Z,15.7
2023-02-26T18:31:07.865Z,15.6
2023-02-26T18:37:01.202Z,15.6
2023-02-26T18:42:54.741Z,15.6
2023-02-26T18:48:47.720Z,15.6
2023-02-26T18:54:40.516Z,15.6
2023-02-26T19:00:37.501Z,15.6
2023-02-26T19:06:31.868Z,15.6
2023-02-26T19:12:24.157Z,15.6
2023-02-26T19:18:18.203Z,15.6
2023-02-26T19:24:12.268Z,15.6
2023-02-26T19:30:08.289Z,15.6
2023-02-26T19:36:06.398Z,15.6
2023-02-26T19:42:01.099Z,15.6
2023-02-26T19:47:54.227Z,15.6
2023-02-26T19:53:46.544Z,15.6
2023-02-26T19:59:39.871Z,15.6
2023-02-26T20:05:33.718Z,15.6
2023-02-26T20:11:28.696Z,15.6
2023-02-26T20:17:22.542Z,15.6
2023-02-26T20:23:15.816Z,15.6
2023-02-26T20:28:53.114Z,15.5
2023-02-26T20:34:51.202Z,15.6
2023-02-26T20:40:45.797Z,15.5
2023-02-26T20:46:39.339Z,15.6
2023-02-26T20:52:33.349Z,19.4
2023-02-26T20:58:11.383Z,21.8
2023-02-26T21:03:49.502Z,21
2023-02-26T21:09:43.053Z,19.7
2023-02-26T21:15:35.718Z,21.8
2023-02-26T21:21:29.124Z,20.6
2023-02-26T21:27:24.886Z,19.6
2023-02-26T21:33:17.774Z,20.3
2023-02-26T21:39:36.221Z,22.6
2023-02-26T21:45:30.401Z,21.2
2023-02-26T21:51:24.082Z,19.6
2023-02-26T21:57:17.168Z,21.6
2023-02-26T22:03:10.422Z,22.2
2023-02-26T22:09:02.968Z,19.9
2023-02-26T22:14:56.043Z,19.4
2023-02-26T22:20:48.406Z,21.8
2023-02-26T22:26:40.497Z,21.9
2023-02-26T22:32:33.231Z,19.9
2023-02-26T22:38:26.250Z,19.4
2023-02-26T22:44:19.218Z,21.1
2023-02-26T22:50:11.579Z,22.4
2023-02-26T22:56:04.280Z,20.1
2023-02-26T23:01:57.174Z,19.4
2023-02-26T23:07:50.396Z,19.2
2023-02-26T23:13:43.337Z,22.3
2023-02-26T23:19:35.815Z,20.9
2023-02-26T23:25:27.519Z,19.8
2023-02-26T23:31:20.347Z,19.3
2023-02-26T23:37:12.825Z,20.1
2023-02-26T23:43:05.660Z,22.7
2023-02-26T23:48:58.383Z,20.5
2023-02-26T23:54:49.706Z,19.6
